Time;durP1;ratioP1;P1;durP2;ratioP2;P2;SDS_P1;SDS_P2;PMS_P1;PMS_P2;Temp;Humidity;BMP_temperature;BMP_pressure;BME280_temperature;BME280_humidity;BME280_pressure;Samples;Min_cycle;Max_cycle;Signal;HPM_P1;HPM_P2
2022/10/05 04:18:57;;;;;;;11.65;6.45;;;;;;;6.06;100.00;101489.22;6630271;26;20087;-89
2022/10/05 04:22:24;;;;;;;13.35;7.07;;;;;;;6.09;100.00;101499.66;6664624;26;34399;-89
2022/10/05 04:26:03;;;;;;;11.20;6.62;;;;;;;6.12;100.00;101499.41;6664276;26;34020;-91
2022/10/05 04:29:12;;;;;;;10.52;6.20;;;;;;;6.14;100.00;101499.28;6664635;26;34060;-90
2022/10/05 04:32:28;;;;;;;13.25;5.82;;;;;;;6.14;100.00;101501.94;6667396;26;33406;-89
2022/10/05 04:35:36;;;;;;;14.32;6.90;;;;;;;6.09;100.00;101482.78;6667007;26;34137;-88
2022/10/05 04:38:57;;;;;;;13.52;6.95;;;;;;;6.04;100.00;101495.66;6667514;26;34037;-88
2022/10/05 04:42:09;;;;;;;12.48;5.97;;;;;;;5.98;100.00;101499.66;6642050;26;31764;-88
2022/10/05 04:45:33;;;;;;;13.60;7.03;;;;;;;5.93;100.00;101503.63;6662774;26;34948;-88
2022/10/05 04:49:01;;;;;;;14.32;6.60;;;;;;;5.87;100.00;101500.44;6662040;26;34441;-88
2022/10/05 04:52:27;;;;;;;13.52;6.82;;;;;;;5.87;100.00;101500.44;6662501;26;33569;-89
2022/10/05 04:56:15;;;;;;;11.52;6.55;;;;;;;5.81;100.00;101497.41;6663541;26;33056;-93
2022/10/05 04:59:37;;;;;;;13.62;6.82;;;;;;;5.74;100.00;101493.53;6606899;26;33219;-88
2022/10/05 05:03:01;;;;;;;11.23;6.53;;;;;;;5.67;100.00;101494.00;6663369;26;34193;-88
2022/10/05 05:06:18;;;;;;;12.18;6.75;;;;;;;5.65;100.00;101495.94;6663156;26;34255;-88
2022/10/05 05:09:51;;;;;;;13.52;6.50;;;;;;;5.64;100.00;101496.88;6642701;26;32412;-89
2022/10/05 05:13:05;;;;;;;10.60;5.97;;;;;;;5.68;100.00;101502.88;6632396;26;33659;-89
2022/10/05 05:16:34;;;;;;;12.98;7.45;;;;;;;5.73;100.00;101494.47;6663681;26;33229;-89
2022/10/05 05:20:00;;;;;;;13.07;7.12;;;;;;;5.78;100.00;101494.97;6643351;26;32268;-88
2022/10/05 05:23:09;;;;;;;15.50;7.47;;;;;;;5.84;100.00;101494.50;6659268;26;33976;-88
2022/10/05 05:26:28;;;;;;;16.15;7.93;;;;;;;5.88;100.00;101498.66;6663606;26;33483;-88
2022/10/05 05:30:01;;;;;;;12.70;7.53;;;;;;;5.99;100.00;101496.00;6663917;26;34278;-87
2022/10/05 05:33:07;;;;;;;17.83;7.45;;;;;;;6.08;100.00;101502.44;6635845;26;33139;-88
2022/10/05 05:36:29;;;;;;;16.83;8.43;;;;;;;6.15;100.00;101497.47;6665838;26;34532;-88
2022/10/05 05:39:53;;;;;;;13.07;7.28;;;;;;;6.25;100.00;101496.59;6665735;26;33743;-88
2022/10/05 05:43:18;;;;;;;13.07;7.90;;;;;;;6.35;100.00;101513.62;6662963;26;33477;-88
2022/10/05 05:46:27;;;;;;;21.37;10.55;;;;;;;6.48;100.00;101520.66;6664168;26;33616;-92
2022/10/05 05:50:18;;;;;;;23.90;11.12;;;;;;;6.61;100.00;101520.53;6643986;26;33193;-88
2022/10/05 05:53:39;;;;;;;22.17;11.00;;;;;;;6.77;100.00;101529.03;6666361;26;34205;-88
2022/10/05 05:56:50;;;;;;;17.83;10.00;;;;;;;6.99;100.00;101538.81;6663812;26;33221;-88
2022/10/05 05:59:59;;;;;;;15.07;8.73;;;;;;;7.17;100.00;101548.03;6644379;26;31759;-88
2022/10/05 06:03:21;;;;;;;16.73;8.40;;;;;;;7.36;100.00;101551.84;6665290;26;33936;-88
2022/10/05 06:06:29;;;;;;;16.55;8.38;;;;;;;7.46;100.00;101553.62;6646989;26;32758;-88
2022/10/05 06:09:55;;;;;;;16.27;8.35;;;;;;;7.56;100.00;101563.56;6642116;26;32064;-88
2022/10/05 06:13:05;;;;;;;11.38;6.87;;;;;;;7.73;100.00;101573.72;6673129;26;33967;-88
2022/10/05 06:16:33;;;;;;;14.38;6.87;;;;;;;7.94;100.00;101585.28;6678549;26;34919;-91
2022/10/05 06:19:39;;;;;;;8.55;5.70;;;;;;;8.16;100.00;101594.16;6664717;26;33255;-88
2022/10/05 06:22:47;;;;;;;13.23;6.25;;;;;;;8.31;100.00;101597.38;6652904;26;32004;-88
2022/10/05 06:26:20;;;;;;;11.18;6.03;;;;;;;8.36;100.00;101612.06;6683453;26;34966;-89
2022/10/05 06:29:53;;;;;;;10.77;5.75;;;;;;;8.55;100.00;101610.53;6666120;26;33319;-88
2022/10/05 06:33:04;;;;;;;13.45;6.07;;;;;;;8.61;100.00;101599.25;6665330;26;33511;-88
2022/10/05 06:36:31;;;;;;;11.80;6.05;;;;;;;8.81;100.00;101603.69;6663508;26;33468;-88
2022/10/05 06:40:01;;;;;;;13.13;6.40;;;;;;;8.99;100.00;101611.94;6643112;26;31769;-88
2022/10/05 06:43:24;;;;;;;13.60;6.18;;;;;;;9.06;100.00;101613.09;6643800;26;33544;-91
2022/10/05 06:46:40;;;;;;;9.00;5.62;;;;;;;9.22;100.00;101612.56;6664599;26;33474;-88
2022/10/05 06:49:57;;;;;;;9.88;6.12;;;;;;;9.27;100.00;101604.06;6662768;26;33229;-88
2022/10/05 06:53:10;;;;;;;10.55;6.32;;;;;;;9.37;100.00;101617.56;6643042;26;34899;-88
2022/10/05 06:56:21;;;;;;;10.90;6.03;;;;;;;9.54;100.00;101617.72;6662662;26;33184;-88
2022/10/05 06:59:38;;;;;;;8.88;5.70;;;;;;;9.67;100.00;101620.09;6642110;26;32386;-88
2022/10/05 07:02:51;;;;;;;7.82;5.85;;;;;;;9.69;100.00;101631.56;6662943;26;33911;-88
2022/10/05 07:06:19;;;;;;;8.93;5.62;;;;;;;9.81;100.00;101639.50;6662713;26;34198;-88
2022/10/05 07:09:34;;;;;;;11.12;5.30;;;;;;;10.01;100.00;101643.03;6662373;26;33164;-88
2022/10/05 07:12:49;;;;;;;7.55;5.32;;;;;;;10.18;100.00;101639.63;6641455;26;32276;-88
2022/10/05 07:16:40;;;;;;;8.98;5.40;;;;;;;10.40;100.00;101630.37;6641821;26;32609;-91
2022/10/05 07:20:05;;;;;;;14.52;5.65;;;;;;;10.50;100.00;101625.84;6663110;26;33504;-88
2022/10/05 07:23:26;;;;;;;7.50;5.03;;;;;;;10.49;100.00;101624.13;6668039;26;33287;-88
2022/10/05 07:26:47;;;;;;;10.85;5.70;;;;;;;10.55;100.00;101623.53;6674860;26;33860;-88
2022/10/05 07:30:02;;;;;;;9.55;5.70;;;;;;;10.82;100.00;101636.19;6642415;26;32349;-88
2022/10/05 07:33:19;;;;;;;11.20;5.37;;;;;;;11.01;100.00;101642.50;6642507;26;32826;-88
2022/10/05 07:40:36;;;;;;;10.10;5.60;;;;;;;11.40;97.44;101639.56;6523578;27;33496;-88
2022/10/05 07:43:40;;;;;;;11.70;6.70;;;;;;;11.71;98.27;101632.78;6524950;26;33234;-88
2022/10/05 07:47:30;;;;;;;7.60;5.15;;;;;;;11.93;97.18;101628.78;6645677;26;32885;-88
2022/10/05 07:50:50;;;;;;;9.65;6.45;;;;;;;12.14;94.56;101630.31;6664427;26;34005;-88
2022/10/05 07:54:23;;;;;;;12.35;6.68;;;;;;;12.19;95.14;101623.41;6644217;26;33727;-89
2022/10/05 07:57:38;;;;;;;12.80;7.35;;;;;;;12.34;94.65;101623.69;6666002;26;34005;-88
2022/10/05 08:00:59;;;;;;;12.13;7.68;;;;;;;12.46;94.96;101633.25;6669751;26;34925;-89
2022/10/05 08:04:33;;;;;;;10.65;7.28;;;;;;;12.49;91.60;101640.19;6665960;26;34279;-88
2022/10/05 08:07:42;;;;;;;13.70;7.15;;;;;;;12.77;91.97;101645.41;6665541;26;33902;-88
2022/10/05 08:11:03;;;;;;;12.05;6.85;;;;;;;12.99;88.39;101646.69;6644675;26;32261;-88
2022/10/05 08:14:38;;;;;;;11.25;7.40;;;;;;;13.21;87.29;101629.84;6665342;26;33104;-89
2022/10/05 08:17:51;;;;;;;12.85;7.65;;;;;;;13.23;85.41;101622.44;6646725;26;33966;-88
2022/10/05 08:20:57;;;;;;;11.07;6.87;;;;;;;13.23;84.75;101611.62;6671751;26;33832;-87
2022/10/05 08:24:17;;;;;;;15.60;7.65;;;;;;;13.27;86.68;101604.03;6662324;26;33613;-88
2022/10/05 08:27:25;;;;;;;;;;;;;;;13.58;84.01;101601.56;6663529;26;34215;-88
2022/10/05 08:30:32;;;;;;;12.55;7.47;;;;;;;13.66;83.55;101595.31;6663676;26;34098;-89
2022/10/05 08:34:00;;;;;;;13.73;8.02;;;;;;;13.96;81.72;101591.09;6663253;26;34300;-91
2022/10/05 08:37:16;;;;;;;14.05;8.07;;;;;;;14.16;79.61;101600.56;6620271;26;33483;-87
2022/10/05 08:40:50;;;;;;;10.55;6.78;;;;;;;14.49;79.11;101593.19;6654354;26;32173;-88
2022/10/05 08:43:59;;;;;;;11.07;7.07;;;;;;;14.74;77.46;101587.72;6644146;26;31830;-88
2022/10/05 08:47:07;;;;;;;14.63;8.20;;;;;;;15.20;76.05;101588.66;6664418;26;33565;-88
2022/10/05 08:50:30;;;;;;;15.77;7.05;;;;;;;15.36;74.19;101586.91;6664393;26;34516;-88
2022/10/05 08:54:03;;;;;;;11.95;7.72;;;;;;;15.43;75.02;101593.28;6664054;26;33449;-88
2022/10/05 08:57:21;;;;;;;18.75;7.90;;;;;;;15.30;73.70;101591.19;6664333;26;34234;-88
2022/10/05 09:00:39;;;;;;;13.88;7.32;;;;;;;15.35;73.88;101586.03;6663803;26;34467;-88
2022/10/05 09:04:12;;;;;;;13.55;7.05;;;;;;;15.18;72.75;101588.03;6663733;26;33545;-89
2022/10/05 09:07:32;;;;;;;12.23;6.80;;;;;;;15.31;73.12;101595.56;6644554;26;31786;-88
2022/10/05 09:10:59;;;;;;;15.45;7.07;;;;;;;15.63;71.49;101604.53;6660986;26;33298;-88
2022/10/05 09:14:05;;;;;;;13.43;7.97;;;;;;;15.95;70.07;101610.75;6673695;26;34966;-88
2022/10/05 09:17:27;;;;;;;17.25;8.15;;;;;;;16.20;68.74;101609.47;6664093;26;33580;-88
2022/10/05 09:20:52;;;;;;;12.63;7.07;;;;;;;16.27;68.68;101623.19;6675264;26;33469;-88
2022/10/05 09:24:13;;;;;;;13.88;7.85;;;;;;;16.27;67.88;101609.59;6664980;26;33611;-88
2022/10/05 09:27:17;;;;;;;12.70;6.70;;;;;;;16.54;67.63;101616.28;6685592;26;34861;-89
2022/10/05 09:30:30;;;;;;;9.57;6.18;;;;;;;16.76;67.80;101609.94;6666833;26;33127;-89
2022/10/05 09:33:52;;;;;;;9.57;5.90;;;;;;;16.96;66.71;101609.34;6666863;26;33112;-90
2022/10/05 09:37:37;;;;;;;5.28;4.45;;;;;;;17.25;63.36;101605.72;6684296;26;34858;-88
2022/10/05 09:40:56;;;;;;;8.10;5.37;;;;;;;17.40;60.23;101612.00;6670573;26;35135;-88
2022/10/05 09:44:17;;;;;;;11.35;5.32;;;;;;;17.48;60.38;101612.87;6645982;26;33344;-90
2022/10/05 09:47:35;;;;;;;7.28;4.53;;;;;;;17.56;62.23;101602.72;6666490;26;33280;-89
2022/10/05 09:51:03;;;;;;;7.87;5.03;;;;;;;18.00;59.27;101598.97;6665109;26;33469;-88
2022/10/05 09:54:50;;;;;;;6.87;4.72;;;;;;;17.80;58.40;101603.41;6644011;26;31848;-88
2022/10/05 09:58:27;;;;;;;7.25;4.68;;;;;;;17.56;59.71;101605.44;6641547;26;33190;-87
2022/10/05 10:01:57;;;;;;;10.48;5.05;;;;;;;17.19;61.20;101596.44;6643009;26;32571;-88
2022/10/05 10:05:04;;;;;;;5.85;4.45;;;;;;;16.93;64.29;101596.97;6645078;26;32990;-88
2022/10/05 10:08:34;;;;;;;6.57;4.70;;;;;;;16.91;63.56;101596.31;6674481;26;34414;-88
2022/10/05 10:11:53;;;;;;;8.13;4.80;;;;;;;17.38;65.12;101597.72;6678981;26;33863;-88
2022/10/05 10:15:33;;;;;;;8.65;5.28;;;;;;;17.72;60.12;101593.44;6664388;26;33110;-88
2022/10/05 10:19:07;;;;;;;8.93;5.12;;;;;;;17.93;60.67;101597.22;6662944;26;33186;-88
2022/10/05 10:22:28;;;;;;;6.50;4.20;;;;;;;17.92;61.62;101603.72;6663286;26;34133;-87
2022/10/05 10:26:04;;;;;;;6.25;4.37;;;;;;;18.17;59.44;101604.97;6662793;26;34776;-88
2022/10/05 10:29:18;;;;;;;5.10;4.25;;;;;;;18.31;61.37;101594.97;6642418;26;32694;-90
2022/10/05 10:32:59;;;;;;;7.07;4.95;;;;;;;18.26;59.69;101592.87;6642462;26;32888;-89
2022/10/05 10:36:32;;;;;;;8.45;4.85;;;;;;;18.35;58.34;101588.94;6662373;26;33070;-88
2022/10/05 10:40:13;;;;;;;8.05;5.05;;;;;;;18.18;57.87;101594.91;6642757;26;32721;-87
2022/10/05 10:43:34;;;;;;;6.47;4.20;;;;;;;17.79;58.48;101583.50;6663087;26;34214;-88
2022/10/05 10:46:58;;;;;;;8.05;4.40;;;;;;;17.57;61.18;101598.09;6662936;26;33295;-89
2022/10/05 10:50:33;;;;;;;7.57;4.47;;;;;;;17.62;61.81;101599.22;6662582;26;34844;-88
2022/10/05 10:54:04;;;;;;;5.70;4.35;;;;;;;18.00;61.16;101596.25;6662423;26;33227;-89
2022/10/05 10:57:22;;;;;;;10.40;5.03;;;;;;;18.82;56.86;101599.31;6642484;26;32381;-93
2022/10/05 11:00:55;;;;;;;8.80;4.40;;;;;;;19.05;58.50;101599.00;6671987;26;33334;-89
2022/10/05 11:04:17;;;;;;;7.10;4.30;;;;;;;18.94;56.62;101594.97;6665233;26;33780;-90
2022/10/05 11:07:25;;;;;;;7.95;5.03;;;;;;;18.91;56.80;101589.91;6664385;26;33539;-90
2022/10/05 11:10:58;;;;;;;8.13;4.93;;;;;;;19.54;55.64;101587.81;6644619;26;32155;-90
2022/10/05 11:14:32;;;;;;;6.53;4.37;;;;;;;19.39;56.37;101592.59;6663880;26;33777;-88
2022/10/05 11:17:56;;;;;;;9.18;5.28;;;;;;;19.98;55.82;101589.13;6664709;26;34256;-88
2022/10/05 11:21:16;;;;;;;8.25;5.40;;;;;;;20.64;53.49;101581.91;6643691;26;31855;-92
2022/10/05 11:24:33;;;;;;;6.65;4.72;;;;;;;21.16;50.29;101580.00;6663365;26;33556;-88
2022/10/05 11:27:45;;;;;;;7.57;4.62;;;;;;;20.91;51.54;101588.12;6634920;26;760857;-88
2022/10/05 11:31:12;;;;;;;8.35;5.25;;;;;;;21.34;50.74;101580.13;6643443;26;32129;-88
2022/10/05 11:34:57;;;;;;;7.30;4.90;;;;;;;21.86;49.41;101572.59;6646832;26;32291;-91
2022/10/05 11:38:30;;;;;;;9.25;4.78;;;;;;;22.19;48.14;101561.38;6665799;26;34514;-88
2022/10/05 11:42:03;;;;;;;8.18;4.85;;;;;;;23.20;46.59;101556.41;6665975;26;33316;-88
2022/10/05 11:45:38;;;;;;;10.38;5.97;;;;;;;24.16;43.81;101557.22;6660585;26;32255;-89
2022/10/05 11:48:46;;;;;;;7.82;4.70;;;;;;;25.29;41.72;101554.09;6682969;26;34079;-89
2022/10/05 11:51:48;;;;;;;8.93;6.05;;;;;;;25.64;42.03;101551.13;6656528;26;33150;-88
2022/10/05 11:55:04;;;;;;;11.00;5.35;;;;;;;25.78;39.69;101548.87;6680611;26;34924;-88
2022/10/05 11:58:27;;;;;;;7.10;5.12;;;;;;;25.39;42.08;101548.78;6665310;26;33907;-88
2022/10/05 12:01:48;;;;;;;8.55;5.53;;;;;;;25.27;41.36;101534.19;6663873;26;33183;-89
2022/10/05 12:05:15;;;;;;;9.95;5.75;;;;;;;24.89;41.50;101536.50;6643490;26;33129;-88
2022/10/05 12:08:17;;;;;;;8.05;5.40;;;;;;;25.46;41.43;101523.81;6664186;26;33482;-88
2022/10/05 12:11:45;;;;;;;6.30;4.85;;;;;;;24.91;42.36;101528.00;6663365;26;33626;-88
2022/10/05 12:15:12;;;;;;;8.55;5.03;;;;;;;24.19;44.90;101534.72;6663677;26;36349;-92
2022/10/05 12:18:15;;;;;;;9.15;5.00;;;;;;;24.83;44.17;101533.88;6663920;26;33430;-89
2022/10/05 12:21:36;;;;;;;6.70;4.82;;;;;;;25.00;42.62;101533.94;6664032;26;33642;-89
2022/10/05 12:25:05;;;;;;;6.28;4.30;;;;;;;24.41;43.12;101532.16;6664760;26;33740;-88
2022/10/05 12:28:14;;;;;;;7.62;3.92;;;;;;;24.20;44.44;101532.78;6670337;26;33412;-89
2022/10/05 12:31:40;;;;;;;6.75;4.37;;;;;;;24.05;43.33;101525.03;6644134;26;32856;-88
2022/10/05 12:34:47;;;;;;;7.43;4.10;;;;;;;24.02;43.92;101520.00;6665906;26;34399;-88
2022/10/05 12:38:09;;;;;;;6.00;3.80;;;;;;;23.91;45.15;101515.34;6668359;26;33509;-88
2022/10/05 12:41:35;;;;;;;8.43;4.62;;;;;;;23.70;45.60;101506.59;6653220;26;31747;-88
2022/10/05 12:44:48;;;;;;;10.95;4.25;;;;;;;23.86;44.40;101494.03;6670686;26;34511;-92
2022/10/05 12:48:24;;;;;;;8.25;4.45;;;;;;;23.07;46.31;101485.97;6665640;26;34876;-91
2022/10/05 12:51:59;;;;;;;6.93;4.82;;;;;;;23.57;45.34;101495.78;6675465;26;33422;-88
2022/10/05 12:55:20;;;;;;;9.65;5.32;;;;;;;24.24;43.89;101497.38;6676729;26;34328;-88
2022/10/05 12:58:32;;;;;;;7.18;4.12;;;;;;;24.63;43.32;101476.50;6664840;26;34188;-88
2022/10/05 13:02:16;;;;;;;6.85;3.67;;;;;;;23.88;43.83;101482.81;6644527;26;32774;-88
2022/10/05 13:05:28;;;;;;;10.00;4.22;;;;;;;23.38;44.60;101489.53;6630843;26;31993;-89
2022/10/05 13:08:31;;;;;;;7.55;3.87;;;;;;;23.49;43.36;101493.41;6643911;26;32201;-88
2022/10/05 13:11:48;;;;;;;7.05;4.12;;;;;;;22.55;46.36;101498.50;6664689;26;35479;-92
2022/10/05 13:15:21;;;;;;;5.80;3.53;;;;;;;21.69;48.15;101490.09;6644655;26;31507;-88
2022/10/05 13:18:34;;;;;;;4.93;3.12;;;;;;;21.47;49.53;101495.13;6644184;26;31950;-89
2022/10/05 13:22:03;;;;;;;11.07;3.42;;;;;;;21.48;48.44;101488.59;6675467;26;33548;-88
2022/10/05 13:25:12;;;;;;;;;;;;;;;21.19;49.62;101483.72;6670683;26;33495;-88
2022/10/05 13:28:20;;;;;;;6.53;2.92;;;;;;;21.34;49.39;101484.22;6645277;26;32352;-88
2022/10/05 13:31:27;;;;;;;;;;;;;;;21.21;49.55;101485.19;6646255;26;31685;-88
2022/10/05 13:34:42;;;;;;;4.20;2.12;;;;;;;21.26;49.63;101482.62;6665770;26;34032;-88
2022/10/05 13:37:48;;;;;;;2.47;2.30;;;;;;;21.05;47.71;101482.94;6664646;26;33569;-89
2022/10/05 13:41:03;;;;;;;2.45;1.92;;;;;;;20.72;50.02;101474.94;6647064;26;32428;-88
2022/10/05 13:44:20;;;;;;;2.42;2.10;;;;;;;20.53;48.88;101474.81;6644303;26;32774;-89
2022/10/05 13:47:39;;;;;;;2.75;2.28;;;;;;;20.41;49.69;101475.66;6664469;26;34093;-89
2022/10/05 13:51:23;;;;;;;2.47;2.25;;;;;;;20.07;50.44;101466.75;6662989;26;33674;-89
2022/10/05 13:54:31;;;;;;;3.87;2.90;;;;;;;19.90;52.26;101472.66;6607784;26;33285;-90
2022/10/05 13:57:43;;;;;;;5.00;2.95;;;;;;;19.73;52.51;101470.56;6662765;26;34285;-90
2022/10/05 14:00:56;;;;;;;4.62;2.55;;;;;;;19.54;53.31;101481.28;6662705;26;33637;-89
2022/10/05 14:04:08;;;;;;;3.10;2.55;;;;;;;19.65;54.04;101471.63;6663345;26;34850;-90
2022/10/05 14:07:33;;;;;;;4.53;2.70;;;;;;;19.77;53.10;101480.00;6642339;26;32467;-89
2022/10/05 14:10:42;;;;;;;3.90;2.97;;;;;;;19.57;53.67;101480.00;6662774;26;34048;-89
2022/10/05 14:13:46;;;;;;;4.12;2.83;;;;;;;19.53;53.70;101479.56;6663231;26;33294;-89
2022/10/05 14:16:55;;;;;;;5.65;2.90;;;;;;;19.27;54.73;101477.66;6643866;26;32401;-89
2022/10/05 14:20:01;;;;;;;4.33;2.87;;;;;;;19.17;55.55;101483.53;6663547;26;33685;-90
2022/10/05 14:23:13;;;;;;;4.95;2.60;;;;;;;19.19;56.57;101481.47;6663674;26;34721;-89
2022/10/05 14:26:24;;;;;;;4.35;2.80;;;;;;;19.19;55.44;101478.72;6664420;26;34913;-92
2022/10/05 14:29:35;;;;;;;6.03;2.90;;;;;;;19.16;54.63;101479.16;6665759;26;33309;-89
2022/10/05 14:32:56;;;;;;;6.53;3.12;;;;;;;19.15;57.10;101473.87;6643476;26;32224;-89
2022/10/05 14:35:59;;;;;;;4.43;3.05;;;;;;;19.23;55.04;101470.97;6671330;26;34317;-89
2022/10/05 14:39:03;;;;;;;9.23;3.62;;;;;;;18.93;57.06;101478.69;6661970;26;32192;-89
2022/10/05 14:42:17;;;;;;;6.57;3.05;;;;;;;18.86;57.96;101473.19;6644104;26;31797;-89
2022/10/05 14:45:22;;;;;;;4.55;2.90;;;;;;;18.88;56.94;101483.91;6644070;26;31915;-89
2022/10/05 14:48:27;;;;;;;4.97;3.10;;;;;;;18.70;56.82;101476.25;6664770;26;33745;-90
2022/10/05 14:51:31;;;;;;;4.20;3.12;;;;;;;18.53;58.41;101483.97;6643497;26;32233;-90
2022/10/05 14:54:52;;;;;;;4.68;3.28;;;;;;;18.37;58.13;101479.69;6663809;26;34028;-90
2022/10/05 14:58:04;;;;;;;3.95;2.90;;;;;;;18.12;60.82;101473.91;6663918;26;33263;-90
2022/10/05 15:01:25;;;;;;;10.75;2.97;;;;;;;18.05;59.51;101465.69;6663814;26;33763;-90
2022/10/05 15:04:41;;;;;;;5.78;3.08;;;;;;;17.97;59.47;101465.00;6644065;26;32216;-90
2022/10/05 15:07:50;;;;;;;4.22;2.80;;;;;;;17.77;59.95;101452.06;6664158;26;33182;-90
2022/10/05 15:11:02;;;;;;;5.32;3.28;;;;;;;17.73;61.54;101444.50;6664206;26;34337;-90
2022/10/05 15:14:14;;;;;;;8.13;3.33;;;;;;;17.67;61.72;101451.56;6664252;26;33987;-90
2022/10/05 15:17:22;;;;;;;5.87;3.35;;;;;;;17.57;62.59;101456.50;6662356;26;34918;-91
2022/10/05 15:20:45;;;;;;;4.35;3.03;;;;;;;17.58;62.25;101460.91;6641402;26;32743;-87
2022/10/05 15:24:03;;;;;;;6.45;2.97;;;;;;;17.45;62.35;101458.94;6642723;26;31695;-87
2022/10/05 15:27:22;;;;;;;8.57;3.22;;;;;;;17.32;63.75;101459.66;6665226;26;33894;-87
2022/10/05 15:30:26;;;;;;;8.60;3.08;;;;;;;17.22;64.21;101456.41;6645235;26;32829;-87
2022/10/05 15:33:45;;;;;;;7.28;3.33;;;;;;;17.10;62.72;101447.09;6668419;26;33600;-87
2022/10/05 15:37:06;;;;;;;4.03;2.67;;;;;;;16.99;63.64;101443.00;6681453;26;33882;-87
2022/10/05 15:40:21;;;;;;;4.85;2.47;;;;;;;16.93;63.14;101441.91;6651377;26;32608;-87
2022/10/05 15:43:29;;;;;;;5.60;2.85;;;;;;;16.81;64.07;101443.44;6670368;26;33473;-87
2022/10/05 15:46:42;;;;;;;6.22;2.80;;;;;;;16.72;64.11;101448.13;6657952;26;32572;-87
2022/10/05 15:50:12;;;;;;;4.28;3.00;;;;;;;16.65;64.42;101438.25;6647767;26;32636;-87
2022/10/05 15:53:18;;;;;;;5.50;2.75;;;;;;;16.58;64.21;101446.28;6643584;26;31817;-88
2022/10/05 15:56:37;;;;;;;4.40;2.92;;;;;;;16.56;64.47;101448.38;6644386;26;31940;-87
